createdAt,value
2018-03-16T00:02:18.331Z,76.20
2018-03-16T00:04:45.076Z,76.80
2018-03-16T00:07:11.123Z,76.80
2018-03-16T00:09:37.955Z,77.50
2018-03-16T00:12:04.029Z,77.50
2018-03-16T00:14:30.821Z,78.80
2018-03-16T00:16:56.981Z,78.80
2018-03-16T00:19:23.380Z,79.40
2018-03-16T00:21:50.183Z,79.70
2018-03-16T00:24:16.157Z,79.60
2018-03-16T00:26:43.130Z,80.40
2018-03-16T00:29:09.179Z,80.40
2018-03-16T00:31:35.243Z,80.50
2018-03-16T00:34:01.579Z,80.60
2018-03-16T00:36:27.758Z,81.10
2018-03-16T00:38:54.211Z,81.70
2018-03-16T00:41:20.846Z,81.70
2018-03-16T00:43:47.585Z,81.70
2018-03-16T00:46:13.681Z,81.70
2018-03-16T00:48:39.761Z,82.20
2018-03-16T00:51:05.866Z,81.70
2018-03-16T00:53:31.839Z,81.80
2018-03-16T00:55:58.555Z,82.40
2018-03-16T00:58:24.574Z,82.40
2018-03-16T01:00:50.574Z,82.60
2018-03-16T01:03:16.565Z,82.80
2018-03-16T01:05:42.536Z,82.90
2018-03-16T01:08:08.854Z,82.80
2018-03-16T01:10:41.918Z,82.60
2018-03-16T01:13:07.992Z,82.00
2018-03-16T01:15:34.475Z,82.30
2018-03-16T01:18:00.467Z,82.60
2018-03-16T01:20:28.888Z,82.90
2018-03-16T01:22:54.863Z,82.80
2018-03-16T01:25:20.840Z,83.00
2018-03-16T01:27:46.816Z,83.00
2018-03-16T01:30:13.563Z,83.60
2018-03-16T01:32:39.593Z,83.00
2018-03-16T01:35:05.639Z,83.10
2018-03-16T01:37:32.407Z,81.60
2018-03-16T01:39:59.151Z,81.50
2018-03-16T01:42:25.141Z,81.40
2018-03-16T01:44:51.137Z,81.50
2018-03-16T01:47:17.916Z,82.00
2018-03-16T01:49:43.918Z,82.00
2018-03-16T01:52:10.971Z,82.10
2018-03-16T01:54:37.034Z,82.10
2018-03-16T01:57:03.267Z,82.20
2018-03-16T01:59:29.254Z,82.30
2018-03-16T02:01:55.255Z,82.50
2018-03-16T02:04:21.231Z,82.20
2018-03-16T02:06:47.215Z,82.20
2018-03-16T02:09:13.199Z,82.00
2018-03-16T02:11:39.234Z,83.10
2018-03-16T02:14:05.316Z,83.00
2018-03-16T02:16:31.307Z,83.20
2018-03-16T02:18:57.291Z,83.60
2018-03-16T02:21:24.020Z,82.90
2018-03-16T02:23:50.002Z,82.90
2018-03-16T02:26:16.028Z,82.60
2018-03-16T02:28:42.105Z,82.20
2018-03-16T02:31:08.152Z,82.90
2018-03-16T02:33:34.288Z,83.00
2018-03-16T02:36:00.629Z,83.00
2018-03-16T02:38:26.592Z,83.20
2018-03-16T02:40:53.350Z,85.10
2018-03-16T02:43:20.049Z,85.00
2018-03-16T02:45:46.059Z,84.80
2018-03-16T02:48:12.061Z,85.30
2018-03-16T02:50:38.524Z,85.20
2018-03-16T02:53:05.340Z,85.10
2018-03-16T02:55:31.313Z,85.00
2018-03-16T02:57:58.056Z,84.90
2018-03-16T03:00:24.771Z,85.70
2018-03-16T03:02:50.753Z,85.00
2018-03-16T03:05:17.472Z,85.70
2018-03-16T03:07:43.457Z,85.60
2018-03-16T03:10:10.209Z,86.10
2018-03-16T03:12:37.031Z,85.90
2018-03-16T03:15:04.558Z,86.40
2018-03-16T03:17:30.524Z,86.30
2018-03-16T03:19:56.519Z,86.20
2018-03-16T03:22:22.481Z,86.20
2018-03-16T03:24:48.448Z,86.10
2018-03-16T03:27:14.405Z,85.80
2018-03-16T03:29:41.202Z,86.10
2018-03-16T03:32:07.220Z,86.00
2018-03-16T03:34:33.254Z,85.80
2018-03-16T03:36:59.231Z,85.80
2018-03-16T03:39:25.273Z,85.80
2018-03-16T03:41:51.262Z,85.90
2018-03-16T03:44:17.232Z,86.40
2018-03-16T03:46:43.207Z,86.60
2018-03-16T03:49:09.990Z,86.50
2018-03-16T03:51:36.024Z,86.40
2018-03-16T03:54:02.012Z,85.90
2018-03-16T03:56:28.001Z,85.90
2018-03-16T03:58:53.993Z,86.10
2018-03-16T04:01:19.977Z,86.70
2018-03-16T04:03:45.971Z,87.20
2018-03-16T04:06:12.744Z,87.50
2018-03-16T04:08:39.541Z,88.20
2018-03-16T04:11:05.585Z,88.10
2018-03-16T04:13:31.928Z,88.10
2018-03-16T04:15:57.907Z,88.60
2018-03-16T04:18:24.619Z,88.90
2018-03-16T04:20:50.603Z,88.80
2018-03-16T04:23:16.600Z,88.10
2018-03-16T04:25:42.575Z,88.60
2018-03-16T04:28:08.656Z,88.90
2018-03-16T04:30:34.695Z,89.40
2018-03-16T04:33:02.184Z,88.90
2018-03-16T04:35:28.161Z,88.90
2018-03-16T04:37:54.558Z,89.60
2018-03-16T04:40:20.528Z,89.30
2018-03-16T04:42:47.281Z,89.30
2018-03-16T04:45:14.065Z,89.00
2018-03-16T04:47:40.168Z,89.00
2018-03-16T04:50:06.980Z,88.60
2018-03-16T04:52:33.352Z,88.40
2018-03-16T04:54:59.340Z,87.50
2018-03-16T04:57:25.346Z,87.50
2018-03-16T04:59:52.087Z,87.80
2018-03-16T05:02:18.120Z,87.70
2018-03-16T05:04:44.240Z,88.60
2018-03-16T05:07:10.281Z,87.60
2018-03-16T05:09:37.076Z,89.00
2018-03-16T05:12:03.235Z,89.00
2018-03-16T05:14:29.256Z,89.30
2018-03-16T05:16:55.240Z,89.60
2018-03-16T05:19:21.220Z,89.10
2018-03-16T05:21:47.929Z,88.80
2018-03-16T05:24:13.923Z,88.80
2018-03-16T05:26:39.908Z,88.80
2018-03-16T05:29:05.915Z,89.30
2018-03-16T05:31:31.900Z,89.10
2018-03-16T05:33:58.656Z,89.00
2018-03-16T05:36:25.418Z,88.80
2018-03-16T05:38:52.556Z,88.50
2018-03-16T05:41:18.549Z,88.50
2018-03-16T05:43:44.559Z,88.90
2018-03-16T05:46:10.570Z,89.50
2018-03-16T05:48:36.583Z,90.00
2018-03-16T05:51:02.625Z,89.70
2018-03-16T05:53:28.623Z,90.30
2018-03-16T05:55:54.609Z,90.50
2018-03-16T05:58:20.585Z,90.60
2018-03-16T06:00:46.613Z,90.60
2018-03-16T06:03:12.594Z,90.30
2018-03-16T06:05:38.888Z,90.00
2018-03-16T06:08:05.730Z,90.30
2018-03-16T06:10:32.484Z,90.60
2018-03-16T06:12:59.213Z,90.50
2018-03-16T06:15:25.983Z,90.20
2018-03-16T06:17:52.160Z,90.10
2018-03-16T06:20:18.134Z,90.00
2018-03-16T06:22:44.168Z,90.20
2018-03-16T06:25:10.222Z,90.10
2018-03-16T06:27:36.263Z,90.10
2018-03-16T06:30:02.267Z,90.00
2018-03-16T06:32:28.243Z,88.70
2018-03-16T06:34:55.012Z,89.60
2018-03-16T06:37:21.716Z,89.70
2018-03-16T06:39:47.733Z,89.60
2018-03-16T06:42:14.480Z,89.60
2018-03-16T06:44:40.593Z,89.60
2018-03-16T06:47:06.590Z,90.00
2018-03-16T06:49:46.636Z,89.60
2018-03-16T06:52:12.624Z,89.20
2018-03-16T06:54:38.609Z,89.20
2018-03-16T06:57:04.564Z,89.10
2018-03-16T06:59:30.537Z,88.70
2018-03-16T07:01:56.528Z,88.80
2018-03-16T07:04:23.310Z,88.80
2018-03-16T07:06:49.291Z,88.70
2018-03-16T07:09:15.288Z,88.60
2018-03-16T07:11:41.245Z,87.90
2018-03-16T07:14:07.228Z,87.70
2018-03-16T07:16:33.920Z,86.50
2018-03-16T07:18:59.896Z,86.50
2018-03-16T07:21:25.900Z,86.70
2018-03-16T07:23:51.901Z,85.50
2018-03-16T07:26:17.849Z,85.20
2018-03-16T07:28:43.834Z,85.50
2018-03-16T07:31:17.501Z,85.00
2018-03-16T07:33:43.788Z,84.90
2018-03-16T07:36:11.232Z,85.00
2018-03-16T07:38:37.191Z,84.90
2018-03-16T07:41:03.203Z,84.30
2018-03-16T07:43:29.157Z,83.10
2018-03-16T07:46:01.416Z,82.40
2018-03-16T07:48:27.428Z,82.10
2018-03-16T07:50:53.432Z,82.70
2018-03-16T07:53:20.127Z,81.40
2018-03-16T07:55:46.121Z,81.30
2018-03-16T07:58:12.065Z,80.60
2018-03-16T08:00:38.777Z,80.40
2018-03-16T08:03:04.729Z,80.40
2018-03-16T08:05:30.688Z,80.20
2018-03-16T08:07:57.411Z,80.40
2018-03-16T08:10:23.416Z,80.40
2018-03-16T08:12:49.388Z,80.30
2018-03-16T08:15:15.421Z,80.30
2018-03-16T08:17:41.328Z,80.20
2018-03-16T08:20:07.295Z,80.10
2018-03-16T08:22:33.282Z,80.50
2018-03-16T08:24:59.979Z,80.80
2018-03-16T08:27:26.111Z,80.70
2018-03-16T08:29:52.134Z,80.90
2018-03-16T08:32:18.101Z,80.30
2018-03-16T08:34:44.839Z,79.30
2018-03-16T08:37:10.808Z,79.20
2018-03-16T08:39:36.777Z,78.90
2018-03-16T08:42:02.761Z,79.10
2018-03-16T08:44:29.457Z,79.80
2018-03-16T08:46:55.436Z,79.70
2018-03-16T08:49:21.408Z,80.00
2018-03-16T08:51:47.372Z,80.00
2018-03-16T08:54:13.356Z,79.50
2018-03-16T08:56:40.061Z,78.90
2018-03-16T08:59:06.012Z,78.80
2018-03-16T09:01:31.995Z,78.60
2018-03-16T09:03:57.968Z,78.20
2018-03-16T09:06:23.954Z,78.50
2018-03-16T09:08:50.788Z,79.40
2018-03-16T09:11:16.768Z,79.40
2018-03-16T09:13:42.736Z,79.50
2018-03-16T09:16:08.721Z,78.80
2018-03-16T09:18:34.709Z,77.40
2018-03-16T09:21:00.679Z,76.20
2018-03-16T09:23:27.437Z,76.00
2018-03-16T09:25:54.146Z,76.10
2018-03-16T09:28:20.102Z,76.10
2018-03-16T09:30:46.073Z,75.80
2018-03-16T09:33:12.029Z,75.90
2018-03-16T09:35:37.996Z,75.00
2018-03-16T09:38:03.956Z,75.30
2018-03-16T09:40:30.704Z,74.80
2018-03-16T09:42:56.669Z,74.10
2018-03-16T09:45:22.628Z,74.40
2018-03-16T09:47:48.632Z,75.50
2018-03-16T09:50:15.360Z,75.00
2018-03-16T09:52:41.331Z,74.90
2018-03-16T09:55:19.744Z,75.20
2018-03-16T09:57:45.704Z,74.50
2018-03-16T10:00:11.676Z,75.20
2018-03-16T10:02:37.668Z,74.20
2018-03-16T10:05:03.639Z,74.30
2018-03-16T10:07:29.639Z,73.40
2018-03-16T10:09:55.618Z,72.40
2018-03-16T10:12:21.568Z,71.80
2018-03-16T10:14:47.533Z,71.00
2018-03-16T10:17:13.547Z,70.10
2018-03-16T10:19:40.289Z,68.30
2018-03-16T10:22:06.265Z,68.20
2018-03-16T10:24:32.240Z,67.60
2018-03-16T10:26:58.220Z,67.80
2018-03-16T10:29:24.936Z,68.10
2018-03-16T10:31:50.888Z,68.00
2018-03-16T10:34:16.899Z,67.50
2018-03-16T10:36:42.864Z,67.20
2018-03-16T10:39:09.568Z,67.90
2018-03-16T10:41:35.552Z,67.80
2018-03-16T10:44:02.283Z,69.50
2018-03-16T10:46:28.267Z,68.80
2018-03-16T10:48:54.322Z,69.20
2018-03-16T10:51:21.017Z,69.60
2018-03-16T10:53:46.979Z,69.50
2018-03-16T10:56:13.688Z,70.00
2018-03-16T10:58:39.660Z,70.00
2018-03-16T11:01:12.460Z,69.10
2018-03-16T11:03:44.260Z,69.30
2018-03-16T11:06:10.241Z,69.20
2018-03-16T11:08:45.668Z,69.40
2018-03-16T11:11:11.640Z,69.40
2018-03-16T11:13:37.636Z,69.80
2018-03-16T11:16:03.654Z,70.10
2018-03-16T11:18:29.699Z,71.10
2018-03-16T11:20:56.396Z,71.10
2018-03-16T11:23:22.437Z,71.10
2018-03-16T11:25:49.145Z,71.50
2018-03-16T11:28:15.136Z,70.90
2018-03-16T11:30:41.831Z,70.80
2018-03-16T11:33:07.802Z,71.40
2018-03-16T11:35:33.837Z,70.30
2018-03-16T11:37:59.806Z,70.70
2018-03-16T11:40:26.508Z,70.70
2018-03-16T11:42:52.627Z,70.70
2018-03-16T11:45:18.610Z,70.40
2018-03-16T11:47:44.599Z,70.00
2018-03-16T11:50:10.557Z,70.00
2018-03-16T11:52:36.541Z,69.80
2018-03-16T11:55:02.556Z,69.90
2018-03-16T11:57:28.728Z,69.60
2018-03-16T11:59:54.807Z,69.40
2018-03-16T12:02:20.793Z,68.60
2018-03-16T12:04:46.752Z,68.20
2018-03-16T12:07:12.737Z,68.60
2018-03-16T12:09:38.703Z,69.20
2018-03-16T12:12:04.669Z,69.30
2018-03-16T12:14:30.648Z,69.50
2018-03-16T12:16:56.638Z,69.80
2018-03-16T12:19:23.468Z,69.60
2018-03-16T12:21:49.425Z,69.60
2018-03-16T12:24:15.403Z,69.80
2018-03-16T12:26:41.360Z,69.40
2018-03-16T12:29:08.075Z,68.00
2018-03-16T12:31:34.035Z,68.00
2018-03-16T12:34:00.764Z,66.80
2018-03-16T12:36:26.734Z,66.80
2018-03-16T12:38:53.460Z,65.60
2018-03-16T12:41:19.421Z,65.50
2018-03-16T12:43:46.136Z,65.20
2018-03-16T12:46:12.091Z,65.20
2018-03-16T12:48:38.052Z,64.40
2018-03-16T12:51:04.054Z,64.40
2018-03-16T12:53:30.093Z,64.10
2018-03-16T12:55:56.015Z,63.60
2018-03-16T12:58:21.990Z,65.50
2018-03-16T13:00:47.957Z,67.00
2018-03-16T13:03:13.932Z,67.70
2018-03-16T13:05:39.892Z,67.90
2018-03-16T13:08:06.656Z,68.40
2018-03-16T13:10:32.655Z,68.30
2018-03-16T13:12:58.629Z,69.10
2018-03-16T13:15:24.621Z,69.50
2018-03-16T13:17:50.585Z,69.30
2018-03-16T13:20:17.304Z,69.10
2018-03-16T13:22:44.766Z,69.30
2018-03-16T13:25:10.724Z,69.30
2018-03-16T13:27:36.716Z,69.60
2018-03-16T13:30:02.713Z,69.80
2018-03-16T13:32:29.438Z,70.60
2018-03-16T13:34:56.152Z,71.70
2018-03-16T13:37:22.129Z,71.70
2018-03-16T13:39:48.844Z,72.70
2018-03-16T13:42:14.821Z,72.70
2018-03-16T13:44:40.775Z,73.50
2018-03-16T13:47:07.481Z,73.00
2018-03-16T13:49:33.452Z,73.00
2018-03-16T13:51:59.412Z,72.90
2018-03-16T13:54:25.403Z,73.10
2018-03-16T13:56:51.364Z,72.90
2018-03-16T13:59:18.068Z,72.30
2018-03-16T14:01:44.036Z,72.30
2018-03-16T14:04:10.005Z,72.40
2018-03-16T14:06:35.977Z,72.80
2018-03-16T14:09:01.949Z,73.20
2018-03-16T14:11:28.691Z,73.80
2018-03-16T14:13:54.728Z,73.30
2018-03-16T14:16:20.720Z,73.40
2018-03-16T14:18:46.676Z,73.70
2018-03-16T14:21:12.646Z,73.90
2018-03-16T14:23:38.600Z,74.40
2018-03-16T14:26:04.601Z,75.60
2018-03-16T14:28:30.598Z,76.20
2018-03-16T14:30:56.601Z,77.80
2018-03-16T14:33:23.328Z,78.30
2018-03-16T14:35:50.801Z,78.20
2018-03-16T14:38:16.761Z,78.10
2018-03-16T14:40:43.476Z,79.10
2018-03-16T14:43:09.436Z,79.00
2018-03-16T14:45:36.141Z,76.00
2018-03-16T14:48:02.113Z,75.70
2018-03-16T14:50:28.097Z,75.00
2018-03-16T14:52:54.068Z,75.30
2018-03-16T14:55:20.041Z,76.20
2018-03-16T14:57:46.762Z,76.00
2018-03-16T15:00:12.737Z,76.00
2018-03-16T15:02:39.432Z,77.10
2018-03-16T15:05:05.404Z,77.10
2018-03-16T15:07:31.348Z,78.20
2018-03-16T15:09:58.071Z,77.40
2018-03-16T15:12:24.057Z,77.40
2018-03-16T15:14:50.028Z,75.30
2018-03-16T15:17:15.991Z,73.80
2018-03-16T15:19:41.973Z,71.90
2018-03-16T15:22:07.936Z,72.80
2018-03-16T15:24:33.904Z,73.50
2018-03-16T15:26:59.872Z,74.50
2018-03-16T15:29:25.878Z,76.50
2018-03-16T15:31:52.630Z,76.80
2018-03-16T15:34:19.401Z,77.50
2018-03-16T15:36:45.418Z,77.40
2018-03-16T15:39:11.376Z,78.80
2018-03-16T15:41:37.348Z,77.70
2018-03-16T15:44:03.322Z,77.00
2018-03-16T15:46:30.045Z,76.80
2018-03-16T15:48:56.012Z,77.00
2018-03-16T15:51:22.728Z,77.40
2018-03-16T15:53:48.684Z,77.80
2018-03-16T15:56:14.685Z,76.70
2018-03-16T15:58:40.661Z,77.20
2018-03-16T16:01:06.625Z,77.50
2018-03-16T16:03:33.356Z,79.20
2018-03-16T16:05:59.322Z,79.10
2018-03-16T16:08:25.288Z,79.30
2018-03-16T16:10:51.270Z,79.90
2018-03-16T16:13:17.961Z,80.20
2018-03-16T16:15:43.936Z,80.20
2018-03-16T16:18:09.900Z,81.70
2018-03-16T16:20:36.632Z,83.10
2018-03-16T16:23:02.973Z,83.00
2018-03-16T16:25:28.946Z,82.50
2018-03-16T16:27:54.928Z,81.80
2018-03-16T16:30:20.906Z,82.70
2018-03-16T16:32:47.613Z,82.60
2018-03-16T16:35:13.579Z,82.50
2018-03-16T16:37:39.536Z,83.40
2018-03-16T16:40:05.498Z,82.50
2018-03-16T16:42:31.469Z,82.50
2018-03-16T16:44:58.222Z,82.60
2018-03-16T16:47:25.082Z,82.80
2018-03-16T16:49:51.046Z,82.80
2018-03-16T16:52:17.039Z,82.50
2018-03-16T16:54:42.996Z,82.30
2018-03-16T16:57:08.988Z,82.50
2018-03-16T16:59:34.977Z,82.50
2018-03-16T17:02:01.674Z,82.10
2018-03-16T17:04:27.652Z,82.10
2018-03-16T17:06:54.380Z,81.10
2018-03-16T17:09:20.345Z,81.70
2018-03-16T17:11:46.335Z,81.90
2018-03-16T17:14:12.324Z,83.90
2018-03-16T17:16:39.064Z,86.50
2018-03-16T17:19:05.040Z,86.40
2018-03-16T17:21:31.000Z,85.90
2018-03-16T17:23:56.976Z,84.70
2018-03-16T17:26:22.941Z,84.10
2018-03-16T17:28:48.928Z,84.40
2018-03-16T17:31:14.891Z,84.50
2018-03-16T17:33:41.608Z,83.00
2018-03-16T17:36:07.559Z,82.90
2018-03-16T17:38:34.273Z,83.90
2018-03-16T17:41:00.244Z,83.90
2018-03-16T17:43:26.246Z,84.50
2018-03-16T17:45:52.219Z,84.80
2018-03-16T17:48:18.193Z,85.70
2018-03-16T17:50:44.164Z,85.80
2018-03-16T17:53:10.136Z,85.90
2018-03-16T17:55:36.870Z,86.70
2018-03-16T17:58:02.817Z,86.70
2018-03-16T18:00:28.818Z,86.80
2018-03-16T18:02:54.796Z,86.80
2018-03-16T18:05:20.760Z,86.80
2018-03-16T18:07:46.707Z,86.50
2018-03-16T18:10:12.668Z,85.40
2018-03-16T18:12:38.631Z,83.50
2018-03-16T18:15:04.589Z,83.40
2018-03-16T18:17:30.561Z,83.30
2018-03-16T18:19:56.528Z,83.30
2018-03-16T18:22:22.544Z,83.30
2018-03-16T18:24:48.500Z,84.20
2018-03-16T18:27:14.468Z,84.80
2018-03-16T18:29:40.448Z,84.70
2018-03-16T18:32:06.420Z,85.50
2018-03-16T18:34:33.135Z,85.10
2018-03-16T18:36:59.091Z,85.10
2018-03-16T18:39:25.076Z,85.30
2018-03-16T18:41:51.076Z,85.50
2018-03-16T18:44:17.800Z,85.10
2018-03-16T18:46:43.785Z,85.00
2018-03-16T18:49:09.773Z,84.70
2018-03-16T18:51:35.732Z,84.20
2018-03-16T18:54:02.463Z,83.70
2018-03-16T18:56:28.461Z,83.10
2018-03-16T18:58:54.473Z,82.90
2018-03-16T19:01:21.185Z,83.10
2018-03-16T19:03:47.147Z,83.10
2018-03-16T19:06:13.887Z,83.20
2018-03-16T19:08:39.862Z,83.20
2018-03-16T19:11:05.860Z,83.40
2018-03-16T19:13:31.827Z,84.60
2018-03-16T19:15:57.788Z,85.10
2018-03-16T19:18:23.787Z,85.60
2018-03-16T19:20:49.757Z,85.40
2018-03-16T19:23:15.741Z,85.90
2018-03-16T19:25:42.448Z,86.10
2018-03-16T19:28:08.420Z,86.10
2018-03-16T19:30:34.431Z,86.50
2018-03-16T19:33:00.756Z,86.60
2018-03-16T19:35:26.714Z,86.70
2018-03-16T19:37:52.720Z,86.60
2018-03-16T19:40:18.705Z,86.40
2018-03-16T19:42:44.665Z,86.20
2018-03-16T19:45:11.368Z,85.60
2018-03-16T19:47:37.329Z,85.60
2018-03-16T19:50:03.316Z,86.20
2018-03-16T19:52:29.306Z,87.00
2018-03-16T19:54:55.325Z,83.20
2018-03-16T19:57:21.300Z,83.10
2018-03-16T19:59:48.026Z,84.50
2018-03-16T20:02:13.994Z,84.40
2018-03-16T20:04:40.360Z,84.90
2018-03-16T20:07:06.351Z,85.10
2018-03-16T20:09:32.308Z,84.40
2018-03-16T20:11:58.295Z,84.00
2018-03-16T20:14:24.256Z,84.60
2018-03-16T20:16:51.026Z,84.60
2018-03-16T20:19:17.717Z,85.10
2018-03-16T20:21:43.764Z,85.00
2018-03-16T20:24:09.724Z,83.90
2018-03-16T20:26:37.192Z,83.80
2018-03-16T20:29:04.652Z,84.30
2018-03-16T20:31:30.616Z,84.20
2018-03-16T20:33:57.336Z,83.30
2018-03-16T20:36:23.327Z,83.20
2018-03-16T20:38:50.061Z,82.30
2018-03-16T20:41:16.777Z,82.80
2018-03-16T20:43:42.732Z,83.40
2018-03-16T20:46:09.448Z,82.30
2018-03-16T20:48:35.408Z,82.20
2018-03-16T20:51:01.531Z,81.80
2018-03-16T20:53:27.571Z,82.70
2018-03-16T20:55:53.580Z,83.30
2018-03-16T20:58:19.564Z,82.90
2018-03-16T21:00:45.567Z,82.60
2018-03-16T21:03:11.500Z,82.30
2018-03-16T21:05:37.460Z,81.50
2018-03-16T21:08:03.427Z,82.00
2018-03-16T21:10:29.418Z,81.30
2018-03-16T21:12:55.432Z,81.50
2018-03-16T21:15:21.396Z,81.20
2018-03-16T21:17:47.364Z,80.40
2018-03-16T21:20:14.076Z,81.60
2018-03-16T21:22:40.104Z,81.60
2018-03-16T21:25:06.081Z,82.10
2018-03-16T21:27:32.053Z,81.00
2018-03-16T21:29:58.030Z,81.50
2018-03-16T21:32:23.997Z,81.50
2018-03-16T21:34:50.747Z,81.30
2018-03-16T21:37:17.464Z,82.20
2018-03-16T21:39:43.437Z,82.10
2018-03-16T21:42:09.392Z,82.40
2018-03-16T21:44:35.348Z,82.00
2018-03-16T21:47:01.324Z,80.10
2018-03-16T21:49:27.300Z,80.20
2018-03-16T21:51:53.312Z,81.30
2018-03-16T21:54:20.010Z,81.30
2018-03-16T21:56:45.969Z,81.20
2018-03-16T21:59:11.946Z,80.80
2018-03-16T22:01:37.924Z,81.00
2018-03-16T22:04:03.940Z,80.90
2018-03-16T22:06:29.888Z,81.40
2018-03-16T22:08:55.856Z,80.60
2018-03-16T22:11:21.825Z,80.50
2018-03-16T22:13:47.808Z,80.00
2018-03-16T22:16:13.780Z,80.60
2018-03-16T22:18:40.499Z,80.40
2018-03-16T22:21:06.461Z,80.40
2018-03-16T22:23:33.181Z,79.80
2018-03-16T22:25:59.152Z,79.70
2018-03-16T22:28:25.874Z,78.30
2018-03-16T22:30:51.839Z,78.20
2018-03-16T22:33:18.528Z,77.90
2018-03-16T22:35:44.513Z,77.70
2018-03-16T22:38:10.471Z,78.40
2018-03-16T22:40:36.506Z,79.20
2018-03-16T22:43:02.484Z,78.90
2018-03-16T22:45:28.461Z,78.70
2018-03-16T22:47:55.175Z,78.80
2018-03-16T22:50:21.140Z,78.40
2018-03-16T22:52:47.100Z,78.70
2018-03-16T22:55:13.821Z,75.40
2018-03-16T22:57:40.532Z,74.50
2018-03-16T23:00:06.714Z,74.60
2018-03-16T23:02:32.681Z,73.60
2018-03-16T23:04:58.668Z,74.50
2018-03-16T23:07:24.648Z,75.20
2018-03-16T23:09:50.597Z,76.50
2018-03-16T23:12:16.567Z,76.60
2018-03-16T23:14:42.532Z,76.20
2018-03-16T23:17:09.240Z,76.20
2018-03-16T23:19:35.199Z,76.20
2018-03-16T23:22:01.160Z,75.90
2018-03-16T23:24:27.125Z,75.10
2018-03-16T23:26:53.103Z,74.60
2018-03-16T23:29:19.048Z,75.10
2018-03-16T23:31:46.508Z,74.10
2018-03-16T23:34:12.472Z,74.20
2018-03-16T23:36:39.252Z,73.10
2018-03-16T23:39:05.192Z,73.00
2018-03-16T23:41:31.162Z,73.20
2018-03-16T23:43:57.119Z,73.30
2018-03-16T23:46:23.089Z,74.60
2018-03-16T23:48:49.046Z,74.40
2018-03-16T23:51:15.028Z,74.00
2018-03-16T23:53:40.980Z,74.80
2018-03-16T23:56:07.688Z,74.90
2018-03-16T23:58:33.665Z,74.80
